THY2415 LTAI-LTFM
Flight info
| Callsign | THY2415 |
|---|---|
| Flight time | 1h 3m |
| Altitude | 40000 |
| Route | EKSEN UM855 SISPI |
| Aircraft | A359/H-SDE2E3GHIJ3J4J5LM1ORWXY/LB1D1 |
Departure
| Time | 2026-05-07 06:32 |
|---|---|
| Airport | Antalya International Airport (LTAI) |
Arrival
| Time | 2026-05-07 07:36 |
|---|---|
| Airport | İstanbul Airport (LTFM) |
| Time | Latitude | Longitude | Altitude | Speed | Heading |
|---|---|---|---|---|---|
| 2026-05-07 06:05 | 36.89732 | 30.80023 | 210 ft | 0 kts | 61° |
| 2026-05-07 06:21 | 36.89727 | 30.80011 | 212 ft | 0 kts | 61° |
| 2026-05-07 06:24 | 36.89717 | 30.79986 | 208 ft | 4 kts | 64° |
| 2026-05-07 06:25 | 36.89706 | 30.79955 | 212 ft | 4 kts | 69° |
| 2026-05-07 06:25 | 36.89697 | 30.79923 | 212 ft | 4 kts | 76° |
| 2026-05-07 06:25 | 36.89693 | 30.79895 | 211 ft | 0 kts | 84° |
| 2026-05-07 06:27 | 36.89690 | 30.79904 | 212 ft | 3 kts | 112° |
| 2026-05-07 06:27 | 36.89649 | 30.79931 | 211 ft | 9 kts | 177° |
| 2026-05-07 06:27 | 36.89549 | 30.79913 | 209 ft | 17 kts | 189° |
| 2026-05-07 06:28 | 36.89422 | 30.79890 | 204 ft | 20 kts | 187° |
| 2026-05-07 06:28 | 36.89283 | 30.79893 | 207 ft | 20 kts | 141° |
| 2026-05-07 06:28 | 36.89250 | 30.80057 | 204 ft | 21 kts | 96° |
| 2026-05-07 06:28 | 36.89233 | 30.80248 | 208 ft | 23 kts | 96° |
| 2026-05-07 06:29 | 36.89215 | 30.80456 | 201 ft | 26 kts | 96° |
| 2026-05-07 06:29 | 36.89168 | 30.80615 | 210 ft | 17 kts | 154° |
| 2026-05-07 06:29 | 36.89044 | 30.80618 | 202 ft | 19 kts | 186° |
| 2026-05-07 06:29 | 36.88902 | 30.80598 | 210 ft | 22 kts | 187° |
| 2026-05-07 06:30 | 36.88746 | 30.80577 | 210 ft | 24 kts | 186° |
| 2026-05-07 06:30 | 36.88574 | 30.80555 | 204 ft | 26 kts | 186° |
| 2026-05-07 06:30 | 36.88388 | 30.80530 | 205 ft | 28 kts | 186° |
| 2026-05-07 06:30 | 36.88192 | 30.80508 | 212 ft | 27 kts | 175° |
| 2026-05-07 06:31 | 36.88136 | 30.80617 | 207 ft | 15 kts | 98° |
| 2026-05-07 06:31 | 36.88169 | 30.80729 | 210 ft | 15 kts | 23° |
| 2026-05-07 06:31 | 36.88224 | 30.80742 | 203 ft | 0 kts | 7° |
| 2026-05-07 06:31 | 36.88240 | 30.80745 | 209 ft | 18 kts | 7° |
| 2026-05-07 06:32 | 36.88652 | 30.80802 | 213 ft | 98 kts | 6° |
| 2026-05-07 06:32 | 36.89562 | 30.80928 | 208 ft | 163 kts | 6° |
| 2026-05-07 06:32 | 36.90775 | 30.81081 | 757 ft | 175 kts | 7° |
| 2026-05-07 06:32 | 36.91939 | 30.81266 | 1722 ft | 169 kts | 9° |
| 2026-05-07 06:33 | 36.93178 | 30.81689 | 2113 ft | 200 kts | 20° |
| 2026-05-07 06:33 | 36.94472 | 30.82526 | 2695 ft | 221 kts | 28° |
| 2026-05-07 06:33 | 36.95836 | 30.83356 | 3710 ft | 215 kts | 20° |
| 2026-05-07 06:33 | 36.97208 | 30.84066 | 4702 ft | 214 kts | 20° |
| 2026-05-07 06:34 | 36.98597 | 30.84744 | 5591 ft | 215 kts | 20° |
| 2026-05-07 06:34 | 37.00026 | 30.85433 | 6298 ft | 230 kts | 21° |
| 2026-05-07 06:34 | 37.01590 | 30.86204 | 6746 ft | 254 kts | 21° |
| 2026-05-07 06:34 | 37.03272 | 30.87033 | 7493 ft | 264 kts | 20° |
| 2026-05-07 06:35 | 37.04995 | 30.87879 | 8447 ft | 268 kts | 20° |
| 2026-05-07 06:35 | 37.06777 | 30.88638 | 9364 ft | 272 kts | 12° |
| 2026-05-07 06:35 | 37.08663 | 30.88732 | 9929 ft | 275 kts | 353° |
| 2026-05-07 06:35 | 37.10554 | 30.88321 | 10139 ft | 277 kts | 348° |
| 2026-05-07 06:36 | 37.12443 | 30.87818 | 10143 ft | 278 kts | 348° |
| 2026-05-07 06:36 | 37.14310 | 30.87322 | 10230 ft | 280 kts | 348° |
| 2026-05-07 06:36 | 37.16255 | 30.86817 | 10490 ft | 297 kts | 348° |
| 2026-05-07 06:36 | 37.18361 | 30.86278 | 10896 ft | 320 kts | 348° |
| 2026-05-07 06:37 | 37.20590 | 30.85713 | 11558 ft | 331 kts | 348° |
| 2026-05-07 06:37 | 37.22862 | 30.85139 | 12450 ft | 335 kts | 348° |
| 2026-05-07 06:37 | 37.25159 | 30.84561 | 13347 ft | 338 kts | 348° |
| 2026-05-07 06:37 | 37.27471 | 30.83979 | 14269 ft | 340 kts | 348° |
| 2026-05-07 06:38 | 37.29798 | 30.83395 | 15101 ft | 344 kts | 348° |
| 2026-05-07 06:38 | 37.32123 | 30.82809 | 15901 ft | 346 kts | 347° |
| 2026-05-07 06:38 | 37.34489 | 30.82212 | 16764 ft | 349 kts | 347° |
| 2026-05-07 06:38 | 37.36879 | 30.81604 | 17590 ft | 352 kts | 347° |
| 2026-05-07 06:39 | 37.39292 | 30.80992 | 18411 ft | 355 kts | 347° |
| 2026-05-07 06:39 | 37.41730 | 30.80413 | 19111 ft | 359 kts | 349° |
| 2026-05-07 06:39 | 37.44239 | 30.80241 | 19838 ft | 365 kts | 357° |
| 2026-05-07 06:39 | 37.46788 | 30.80303 | 20568 ft | 369 kts | 359° |
| 2026-05-07 06:40 | 37.49365 | 30.80396 | 21301 ft | 372 kts | 358° |
| 2026-05-07 06:40 | 37.51971 | 30.80503 | 21994 ft | 377 kts | 359° |
| 2026-05-07 06:40 | 37.54601 | 30.80630 | 22717 ft | 380 kts | 359° |
| 2026-05-07 06:40 | 37.57220 | 30.80758 | 23456 ft | 383 kts | 359° |
| 2026-05-07 06:41 | 37.59892 | 30.80884 | 24042 ft | 387 kts | 359° |
| 2026-05-07 06:41 | 37.62594 | 30.81010 | 24579 ft | 390 kts | 359° |
| 2026-05-07 06:41 | 37.65312 | 30.81134 | 25180 ft | 393 kts | 359° |
| 2026-05-07 06:41 | 37.68053 | 30.81259 | 25777 ft | 396 kts | 359° |
| 2026-05-07 06:42 | 37.70822 | 30.81378 | 26365 ft | 399 kts | 358° |
| 2026-05-07 06:42 | 37.73596 | 30.81229 | 26930 ft | 399 kts | 350° |
| 2026-05-07 06:42 | 37.76262 | 30.80522 | 27527 ft | 398 kts | 341° |
| 2026-05-07 06:42 | 37.78833 | 30.79205 | 28086 ft | 400 kts | 332° |
| 2026-05-07 06:43 | 37.81188 | 30.77306 | 28631 ft | 404 kts | 322° |
| 2026-05-07 06:43 | 37.83270 | 30.74898 | 29199 ft | 408 kts | 315° |
| 2026-05-07 06:43 | 37.85262 | 30.72329 | 29715 ft | 411 kts | 317° |
| 2026-05-07 06:43 | 37.87474 | 30.70019 | 30292 ft | 413 kts | 325° |
| 2026-05-07 06:44 | 37.89956 | 30.68168 | 30721 ft | 417 kts | 333° |
| 2026-05-07 06:44 | 37.92679 | 30.66841 | 31122 ft | 422 kts | 342° |
| 2026-05-07 06:44 | 37.95566 | 30.66068 | 31518 ft | 428 kts | 348° |
| 2026-05-07 06:44 | 37.98494 | 30.65548 | 31930 ft | 431 kts | 350° |
| 2026-05-07 06:45 | 38.01481 | 30.65119 | 32341 ft | 434 kts | 351° |
| 2026-05-07 06:45 | 38.04497 | 30.64750 | 32664 ft | 437 kts | 352° |
| 2026-05-07 06:45 | 38.07532 | 30.64396 | 33033 ft | 440 kts | 352° |
| 2026-05-07 06:45 | 38.10587 | 30.64034 | 33407 ft | 442 kts | 352° |
| 2026-05-07 06:46 | 38.13658 | 30.63657 | 33753 ft | 445 kts | 351° |
| 2026-05-07 06:46 | 38.16747 | 30.63265 | 34079 ft | 447 kts | 351° |
| 2026-05-07 06:46 | 38.19831 | 30.62866 | 34472 ft | 447 kts | 351° |
| 2026-05-07 06:46 | 38.22884 | 30.62466 | 34819 ft | 447 kts | 351° |
| 2026-05-07 06:47 | 38.25977 | 30.62059 | 35187 ft | 447 kts | 351° |
| 2026-05-07 06:47 | 38.29092 | 30.61828 | 35509 ft | 449 kts | 355° |
| 2026-05-07 06:47 | 38.32197 | 30.61733 | 35813 ft | 451 kts | 355° |
| 2026-05-07 06:47 | 38.35342 | 30.61673 | 36108 ft | 452 kts | 356° |
| 2026-05-07 06:48 | 38.38484 | 30.61634 | 36415 ft | 452 kts | 356° |
| 2026-05-07 06:48 | 38.41636 | 30.61604 | 36741 ft | 453 kts | 356° |
| 2026-05-07 06:48 | 38.44764 | 30.61577 | 37037 ft | 453 kts | 356° |
| 2026-05-07 06:48 | 38.47917 | 30.61548 | 37325 ft | 453 kts | 356° |
| 2026-05-07 06:49 | 38.51030 | 30.61517 | 37602 ft | 454 kts | 356° |
| 2026-05-07 06:49 | 38.54192 | 30.61484 | 37868 ft | 455 kts | 356° |
| 2026-05-07 06:49 | 38.57337 | 30.61449 | 38144 ft | 455 kts | 356° |
| 2026-05-07 06:49 | 38.60510 | 30.61413 | 38393 ft | 456 kts | 356° |
| 2026-05-07 06:50 | 38.63680 | 30.61377 | 38663 ft | 456 kts | 356° |
| 2026-05-07 06:50 | 38.66859 | 30.61326 | 38916 ft | 456 kts | 354° |
| 2026-05-07 06:50 | 38.70000 | 30.60955 | 39091 ft | 453 kts | 348° |
| 2026-05-07 06:50 | 38.73068 | 30.60072 | 39280 ft | 451 kts | 340° |
| 2026-05-07 06:51 | 38.75991 | 30.58662 | 39461 ft | 449 kts | 333° |
| 2026-05-07 06:51 | 38.78784 | 30.56984 | 39651 ft | 449 kts | 332° |
| 2026-05-07 06:51 | 38.81560 | 30.55210 | 39819 ft | 449 kts | 331° |
| 2026-05-07 06:51 | 38.84343 | 30.53377 | 40002 ft | 450 kts | 331° |
| 2026-05-07 06:52 | 38.87117 | 30.51529 | 40154 ft | 451 kts | 330° |
| 2026-05-07 06:52 | 38.89903 | 30.49672 | 40190 ft | 451 kts | 331° |
| 2026-05-07 06:52 | 38.95470 | 30.45980 | 40185 ft | 450 kts | 331° |
| 2026-05-07 06:53 | 39.01051 | 30.42297 | 40200 ft | 451 kts | 331° |
| 2026-05-07 06:53 | 39.06568 | 30.38658 | 40183 ft | 451 kts | 331° |
| 2026-05-07 06:54 | 39.12146 | 30.34974 | 40187 ft | 451 kts | 331° |
| 2026-05-07 06:54 | 39.17720 | 30.31284 | 40187 ft | 451 kts | 331° |
| 2026-05-07 06:55 | 39.23298 | 30.27583 | 40183 ft | 450 kts | 331° |
| 2026-05-07 06:55 | 39.28847 | 30.23896 | 40187 ft | 450 kts | 331° |
| 2026-05-07 06:56 | 39.34385 | 30.20208 | 40180 ft | 451 kts | 331° |
| 2026-05-07 06:56 | 39.37147 | 30.18368 | 39884 ft | 444 kts | 331° |
| 2026-05-07 06:56 | 39.39898 | 30.16533 | 39194 ft | 446 kts | 331° |
| 2026-05-07 06:57 | 39.42660 | 30.14687 | 38459 ft | 447 kts | 331° |
| 2026-05-07 06:57 | 39.45420 | 30.12842 | 37776 ft | 445 kts | 332° |
| 2026-05-07 06:57 | 39.48162 | 30.11057 | 37071 ft | 443 kts | 334° |
| 2026-05-07 06:57 | 39.50970 | 30.09430 | 36399 ft | 441 kts | 336° |
| 2026-05-07 06:58 | 39.53800 | 30.07898 | 35730 ft | 440 kts | 337° |
| 2026-05-07 06:58 | 39.56592 | 30.06416 | 35024 ft | 439 kts | 337° |
| 2026-05-07 06:58 | 39.59415 | 30.04910 | 34257 ft | 439 kts | 337° |
| 2026-05-07 06:58 | 39.62233 | 30.03384 | 33366 ft | 439 kts | 337° |
| 2026-05-07 06:59 | 39.65047 | 30.01839 | 32518 ft | 439 kts | 336° |
| 2026-05-07 06:59 | 39.67846 | 30.00286 | 31677 ft | 439 kts | 336° |
| 2026-05-07 06:59 | 39.70660 | 29.98715 | 30804 ft | 440 kts | 336° |
| 2026-05-07 06:59 | 39.73461 | 29.97144 | 30178 ft | 435 kts | 336° |
| 2026-05-07 07:00 | 39.76221 | 29.95595 | 29693 ft | 427 kts | 336° |
| 2026-05-07 07:00 | 39.78897 | 29.94089 | 29538 ft | 412 kts | 336° |
| 2026-05-07 07:00 | 39.81485 | 29.92633 | 29393 ft | 398 kts | 336° |
| 2026-05-07 07:00 | 39.83947 | 29.91248 | 29253 ft | 385 kts | 336° |
| 2026-05-07 07:01 | 39.86366 | 29.89886 | 29115 ft | 372 kts | 336° |
| 2026-05-07 07:01 | 39.88723 | 29.88561 | 28660 ft | 367 kts | 336° |
| 2026-05-07 07:01 | 39.91108 | 29.87489 | 28180 ft | 364 kts | 345° |
| 2026-05-07 07:01 | 39.93608 | 29.87033 | 27836 ft | 368 kts | 355° |
| 2026-05-07 07:02 | 39.96203 | 29.86964 | 27503 ft | 376 kts | 357° |
| 2026-05-07 07:02 | 39.98825 | 29.86963 | 27162 ft | 377 kts | 357° |
| 2026-05-07 07:02 | 40.01450 | 29.86968 | 26809 ft | 376 kts | 357° |
| 2026-05-07 07:02 | 40.04062 | 29.86971 | 26467 ft | 375 kts | 357° |
| 2026-05-07 07:03 | 40.06664 | 29.86971 | 26130 ft | 373 kts | 357° |
| 2026-05-07 07:03 | 40.09220 | 29.86969 | 25795 ft | 372 kts | 357° |
| 2026-05-07 07:03 | 40.11782 | 29.86967 | 25459 ft | 370 kts | 357° |
| 2026-05-07 07:03 | 40.14353 | 29.86963 | 25122 ft | 369 kts | 358° |
| 2026-05-07 07:04 | 40.16917 | 29.86959 | 24789 ft | 368 kts | 358° |
| 2026-05-07 07:04 | 40.19472 | 29.86955 | 24450 ft | 367 kts | 358° |
| 2026-05-07 07:04 | 40.22001 | 29.86954 | 24119 ft | 365 kts | 358° |
| 2026-05-07 07:04 | 40.24537 | 29.86949 | 23780 ft | 364 kts | 358° |
| 2026-05-07 07:05 | 40.27068 | 29.86943 | 23405 ft | 363 kts | 358° |
| 2026-05-07 07:05 | 40.29591 | 29.86938 | 23070 ft | 362 kts | 358° |
| 2026-05-07 07:05 | 40.32057 | 29.86933 | 22761 ft | 361 kts | 358° |
| 2026-05-07 07:05 | 40.34565 | 29.86929 | 22422 ft | 361 kts | 358° |
| 2026-05-07 07:06 | 40.37077 | 29.86926 | 22096 ft | 360 kts | 358° |
| 2026-05-07 07:06 | 40.39565 | 29.87040 | 21828 ft | 355 kts | 4° |
| 2026-05-07 07:06 | 40.41908 | 29.87839 | 21610 ft | 349 kts | 20° |
| 2026-05-07 07:06 | 40.43997 | 29.89402 | 21401 ft | 343 kts | 30° |
| 2026-05-07 07:07 | 40.45883 | 29.91113 | 21098 ft | 337 kts | 31° |
| 2026-05-07 07:07 | 40.47787 | 29.92878 | 20734 ft | 332 kts | 31° |
| 2026-05-07 07:07 | 40.49635 | 29.94587 | 20421 ft | 327 kts | 31° |
| 2026-05-07 07:07 | 40.51557 | 29.96135 | 20152 ft | 322 kts | 21° |
| 2026-05-07 07:08 | 40.53679 | 29.96886 | 19768 ft | 314 kts | 2° |
| 2026-05-07 07:08 | 40.55856 | 29.96989 | 19352 ft | 313 kts | 358° |
| 2026-05-07 07:08 | 40.58024 | 29.96971 | 19046 ft | 314 kts | 358° |
| 2026-05-07 07:08 | 40.60208 | 29.96949 | 18751 ft | 315 kts | 358° |
| 2026-05-07 07:09 | 40.62401 | 29.96937 | 18462 ft | 314 kts | 358° |
| 2026-05-07 07:09 | 40.64584 | 29.96930 | 18146 ft | 314 kts | 358° |
| 2026-05-07 07:09 | 40.66744 | 29.96879 | 17861 ft | 312 kts | 354° |
| 2026-05-07 07:09 | 40.68824 | 29.96315 | 17585 ft | 309 kts | 342° |
| 2026-05-07 07:10 | 40.70855 | 29.95416 | 17291 ft | 307 kts | 340° |
| 2026-05-07 07:10 | 40.72863 | 29.94476 | 16995 ft | 306 kts | 340° |
| 2026-05-07 07:10 | 40.74848 | 29.93547 | 16731 ft | 304 kts | 340° |
| 2026-05-07 07:10 | 40.76841 | 29.92619 | 16448 ft | 303 kts | 340° |
| 2026-05-07 07:11 | 40.78826 | 29.91697 | 16171 ft | 302 kts | 340° |
| 2026-05-07 07:11 | 40.80800 | 29.90782 | 15898 ft | 301 kts | 340° |
| 2026-05-07 07:11 | 40.82757 | 29.89872 | 15640 ft | 299 kts | 340° |
| 2026-05-07 07:11 | 40.84618 | 29.88664 | 15363 ft | 299 kts | 325° |
| 2026-05-07 07:12 | 40.86032 | 29.86729 | 15093 ft | 299 kts | 304° |
| 2026-05-07 07:12 | 40.86778 | 29.84173 | 14801 ft | 302 kts | 282° |
| 2026-05-07 07:12 | 40.86888 | 29.81413 | 14521 ft | 304 kts | 272° |
| 2026-05-07 07:12 | 40.86841 | 29.78611 | 14248 ft | 305 kts | 271° |
| 2026-05-07 07:13 | 40.86786 | 29.75819 | 13969 ft | 304 kts | 271° |
| 2026-05-07 07:13 | 40.86739 | 29.73033 | 13672 ft | 303 kts | 272° |
| 2026-05-07 07:13 | 40.86697 | 29.70257 | 13386 ft | 301 kts | 272° |
| 2026-05-07 07:13 | 40.86655 | 29.67498 | 13110 ft | 300 kts | 272° |
| 2026-05-07 07:14 | 40.86642 | 29.64757 | 12815 ft | 297 kts | 275° |
| 2026-05-07 07:14 | 40.86837 | 29.62091 | 12572 ft | 294 kts | 280° |
| 2026-05-07 07:14 | 40.87108 | 29.59442 | 12348 ft | 289 kts | 281° |
| 2026-05-07 07:14 | 40.87379 | 29.56855 | 12197 ft | 279 kts | 281° |
| 2026-05-07 07:15 | 40.87642 | 29.54351 | 11938 ft | 272 kts | 281° |
| 2026-05-07 07:15 | 40.87903 | 29.51899 | 11621 ft | 267 kts | 281° |
| 2026-05-07 07:15 | 40.88419 | 29.49588 | 11354 ft | 260 kts | 299° |
| 2026-05-07 07:15 | 40.89556 | 29.47783 | 11138 ft | 255 kts | 324° |
| 2026-05-07 07:16 | 40.91161 | 29.46841 | 11007 ft | 255 kts | 348° |
| 2026-05-07 07:16 | 40.92925 | 29.46593 | 10995 ft | 256 kts | 355° |
| 2026-05-07 07:16 | 40.94672 | 29.46493 | 10990 ft | 256 kts | 356° |
| 2026-05-07 07:16 | 40.96455 | 29.46396 | 10997 ft | 256 kts | 355° |
| 2026-05-07 07:17 | 40.98209 | 29.46045 | 10997 ft | 255 kts | 344° |
| 2026-05-07 07:17 | 40.99910 | 29.45381 | 10992 ft | 255 kts | 341° |
| 2026-05-07 07:17 | 41.01597 | 29.44660 | 10990 ft | 255 kts | 341° |
| 2026-05-07 07:17 | 41.03282 | 29.43936 | 10993 ft | 255 kts | 341° |
| 2026-05-07 07:18 | 41.04967 | 29.43212 | 10992 ft | 255 kts | 341° |
| 2026-05-07 07:18 | 41.06604 | 29.42311 | 10991 ft | 255 kts | 331° |
| 2026-05-07 07:18 | 41.08093 | 29.41120 | 10991 ft | 255 kts | 327° |
| 2026-05-07 07:18 | 41.09582 | 29.39840 | 10990 ft | 255 kts | 327° |
| 2026-05-07 07:19 | 41.10982 | 29.38630 | 10991 ft | 255 kts | 327° |
| 2026-05-07 07:19 | 41.12473 | 29.37347 | 10986 ft | 255 kts | 327° |
| 2026-05-07 07:19 | 41.13914 | 29.35981 | 10986 ft | 256 kts | 319° |
| 2026-05-07 07:19 | 41.15170 | 29.34312 | 10987 ft | 256 kts | 313° |
| 2026-05-07 07:20 | 41.16363 | 29.32560 | 10990 ft | 256 kts | 313° |
| 2026-05-07 07:20 | 41.17515 | 29.30764 | 10980 ft | 257 kts | 308° |
| 2026-05-07 07:20 | 41.18273 | 29.28641 | 10980 ft | 260 kts | 285° |
| 2026-05-07 07:20 | 41.18279 | 29.26264 | 10980 ft | 266 kts | 260° |
| 2026-05-07 07:21 | 41.17447 | 29.24057 | 10980 ft | 274 kts | 232° |
| 2026-05-07 07:21 | 41.15895 | 29.22561 | 10982 ft | 281 kts | 205° |
| 2026-05-07 07:21 | 41.14106 | 29.21515 | 10981 ft | 281 kts | 212° |
| 2026-05-07 07:21 | 41.12441 | 29.20164 | 10942 ft | 280 kts | 216° |
| 2026-05-07 07:22 | 41.10825 | 29.18731 | 10774 ft | 278 kts | 217° |
| 2026-05-07 07:22 | 41.09225 | 29.17292 | 10625 ft | 278 kts | 217° |
| 2026-05-07 07:22 | 41.07640 | 29.15855 | 10470 ft | 277 kts | 218° |
| 2026-05-07 07:22 | 41.06051 | 29.14416 | 10304 ft | 276 kts | 218° |
| 2026-05-07 07:23 | 41.04488 | 29.13002 | 10159 ft | 276 kts | 218° |
| 2026-05-07 07:23 | 41.02905 | 29.11571 | 9993 ft | 275 kts | 218° |
| 2026-05-07 07:23 | 41.01331 | 29.10149 | 9855 ft | 274 kts | 218° |
| 2026-05-07 07:23 | 40.99755 | 29.08724 | 9692 ft | 273 kts | 218° |
| 2026-05-07 07:24 | 40.98185 | 29.07305 | 9539 ft | 272 kts | 218° |
| 2026-05-07 07:24 | 40.96629 | 29.05900 | 9430 ft | 268 kts | 218° |
| 2026-05-07 07:24 | 40.95120 | 29.04541 | 9170 ft | 262 kts | 218° |
| 2026-05-07 07:24 | 40.93653 | 29.03214 | 8902 ft | 256 kts | 218° |
| 2026-05-07 07:25 | 40.91770 | 28.99554 | 8370 ft | 240 kts | 266° |
| 2026-05-07 07:25 | 40.91938 | 28.97403 | 8028 ft | 234 kts | 287° |
| 2026-05-07 07:25 | 40.92410 | 28.95356 | 7755 ft | 232 kts | 289° |
| 2026-05-07 07:26 | 40.92908 | 28.93325 | 7511 ft | 232 kts | 289° |
| 2026-05-07 07:26 | 40.93399 | 28.91299 | 7275 ft | 231 kts | 289° |
| 2026-05-07 07:26 | 40.93878 | 28.89293 | 7027 ft | 230 kts | 288° |
| 2026-05-07 07:26 | 40.94354 | 28.87279 | 6778 ft | 229 kts | 288° |
| 2026-05-07 07:27 | 40.94825 | 28.85277 | 6545 ft | 227 kts | 288° |
| 2026-05-07 07:27 | 40.95285 | 28.83309 | 6290 ft | 227 kts | 288° |
| 2026-05-07 07:27 | 40.95748 | 28.81333 | 5967 ft | 226 kts | 288° |
| 2026-05-07 07:27 | 40.96206 | 28.79380 | 5812 ft | 218 kts | 288° |
| 2026-05-07 07:28 | 40.96641 | 28.77506 | 5674 ft | 208 kts | 288° |
| 2026-05-07 07:28 | 40.97063 | 28.75717 | 5538 ft | 199 kts | 289° |
| 2026-05-07 07:28 | 40.97722 | 28.74175 | 5361 ft | 193 kts | 313° |
| 2026-05-07 07:28 | 40.98862 | 28.73361 | 5303 ft | 186 kts | 347° |
| 2026-05-07 07:29 | 41.00126 | 28.73320 | 5148 ft | 178 kts | 358° |
| 2026-05-07 07:29 | 41.01323 | 28.73346 | 5038 ft | 165 kts | 356° |
| 2026-05-07 07:29 | 41.02412 | 28.73335 | 4974 ft | 155 kts | 355° |
| 2026-05-07 07:29 | 41.03462 | 28.73306 | 4810 ft | 146 kts | 354° |
| 2026-05-07 07:30 | 41.04455 | 28.73280 | 4616 ft | 140 kts | 354° |
| 2026-05-07 07:30 | 41.05424 | 28.73257 | 4432 ft | 140 kts | 354° |
| 2026-05-07 07:30 | 41.06397 | 28.73234 | 4231 ft | 140 kts | 354° |
| 2026-05-07 07:30 | 41.07368 | 28.73212 | 4032 ft | 139 kts | 354° |
| 2026-05-07 07:31 | 41.08334 | 28.73190 | 3846 ft | 139 kts | 354° |
| 2026-05-07 07:31 | 41.09304 | 28.73170 | 3651 ft | 139 kts | 354° |
| 2026-05-07 07:31 | 41.10255 | 28.73147 | 3472 ft | 140 kts | 353° |
| 2026-05-07 07:31 | 41.11225 | 28.73122 | 3272 ft | 139 kts | 353° |
| 2026-05-07 07:32 | 41.12191 | 28.73100 | 3078 ft | 139 kts | 354° |
| 2026-05-07 07:32 | 41.13165 | 28.73079 | 2894 ft | 141 kts | 353° |
| 2026-05-07 07:32 | 41.14124 | 28.73057 | 2719 ft | 138 kts | 353° |
| 2026-05-07 07:32 | 41.15092 | 28.73033 | 2532 ft | 141 kts | 353° |
| 2026-05-07 07:33 | 41.16073 | 28.73008 | 2346 ft | 141 kts | 354° |
| 2026-05-07 07:33 | 41.17064 | 28.72986 | 2148 ft | 142 kts | 354° |
| 2026-05-07 07:33 | 41.18037 | 28.72965 | 1968 ft | 141 kts | 356° |
| 2026-05-07 07:33 | 41.19012 | 28.72945 | 1779 ft | 142 kts | 355° |
| 2026-05-07 07:34 | 41.19991 | 28.72921 | 1577 ft | 140 kts | 356° |
| 2026-05-07 07:34 | 41.20961 | 28.72897 | 1430 ft | 139 kts | 356° |
| 2026-05-07 07:34 | 41.21937 | 28.72887 | 1221 ft | 142 kts | 358° |
| 2026-05-07 07:34 | 41.22914 | 28.72869 | 988 ft | 137 kts | 356° |
| 2026-05-07 07:35 | 41.23847 | 28.72844 | 786 ft | 135 kts | 356° |
| 2026-05-07 07:35 | 41.24798 | 28.72808 | 646 ft | 137 kts | 356° |
| 2026-05-07 07:35 | 41.25747 | 28.72789 | 466 ft | 138 kts | 358° |
| 2026-05-07 07:35 | 41.26694 | 28.72768 | 346 ft | 131 kts | 358° |
| 2026-05-07 07:36 | 41.27426 | 28.72739 | 336 ft | 70 kts | 0° |
| 2026-05-07 07:36 | 41.27637 | 28.72743 | 339 ft | 12 kts | 0° |
| 2026-05-07 07:36 | 41.27842 | 28.72745 | 337 ft | 42 kts | 0° |
| 2026-05-07 07:36 | 41.28037 | 28.72808 | 335 ft | 10 kts | 26° |
| 2026-05-07 07:37 | 41.28110 | 28.72863 | 337 ft | 14 kts | 33° |
| 2026-05-07 07:37 | 41.28132 | 28.72934 | 336 ft | 5 kts | 120° |
| 2026-05-07 07:37 | 41.28110 | 28.72955 | 337 ft | 3 kts | 166° |
| 2026-05-07 07:37 | 41.28072 | 28.72964 | 335 ft | 7 kts | 170° |
| 2026-05-07 07:38 | 41.28014 | 28.72969 | 336 ft | 9 kts | 185° |
| 2026-05-07 07:38 | 41.27941 | 28.72965 | 338 ft | 12 kts | 180° |
| 2026-05-07 07:38 | 41.27851 | 28.72965 | 337 ft | 15 kts | 180° |
| 2026-05-07 07:38 | 41.27740 | 28.72967 | 336 ft | 17 kts | 178° |
| 2026-05-07 07:39 | 41.27612 | 28.72972 | 338 ft | 20 kts | 179° |
| 2026-05-07 07:39 | 41.27466 | 28.72975 | 336 ft | 22 kts | 178° |
| 2026-05-07 07:39 | 41.27307 | 28.72977 | 336 ft | 24 kts | 179° |
| 2026-05-07 07:39 | 41.27134 | 28.72979 | 335 ft | 26 kts | 180° |
| 2026-05-07 07:40 | 41.26997 | 28.72987 | 336 ft | 16 kts | 169° |
| 2026-05-07 07:40 | 41.26954 | 28.73055 | 336 ft | 9 kts | 95° |
| 2026-05-07 07:40 | 41.26953 | 28.73117 | 339 ft | 11 kts | 91° |
| 2026-05-07 07:40 | 41.26955 | 28.73233 | 337 ft | 14 kts | 88° |
| 2026-05-07 07:41 | 41.26958 | 28.73434 | 336 ft | 18 kts | 89° |
| 2026-05-07 07:41 | 41.26961 | 28.73617 | 340 ft | 21 kts | 89° |
| 2026-05-07 07:41 | 41.26963 | 28.73824 | 340 ft | 24 kts | 89° |
| 2026-05-07 07:41 | 41.26967 | 28.74055 | 340 ft | 26 kts | 89° |
| 2026-05-07 07:42 | 41.26970 | 28.74308 | 340 ft | 28 kts | 89° |
| 2026-05-07 07:42 | 41.26968 | 28.74418 | 338 ft | 13 kts | 102° |
| 2026-05-07 07:42 | 41.26895 | 28.74466 | 336 ft | 14 kts | 179° |
| 2026-05-07 07:42 | 41.26876 | 28.74466 | 338 ft | 0 kts | 180° |
| 2026-05-07 07:44 | 41.26864 | 28.74466 | 335 ft | 9 kts | 180° |
| 2026-05-07 07:44 | 41.26811 | 28.74445 | 335 ft | 8 kts | 231° |
| 2026-05-07 07:45 | 41.26803 | 28.74397 | 335 ft | 7 kts | 273° |
| 2026-05-07 07:45 | 41.26805 | 28.74341 | 339 ft | 3 kts | 272° |